METAR Reports From Nearby Airports

 

KLUD - Decatur, Texas, USA
Distance from Wildwood: ØSØ 5mi, 8km
Opdateret: Mar 31, 2020 6:15pm
Mostly Cloudy
Mostly Cloudy
 Vind retning ØSØ
Vind: ØSØ 3 mph , 6 km/h
Temperatur: 64°F , 18°C
Dugpunkt: 46°F , 8°C
Fugtighed: 52%
Barometer: 30.03 inHg , 1016.9 hPa
Clouds: Mostly Cloudy
Visibility: 10 miles , 16 km
Cloud details: Mostly Cloudy 4300 ft
2020/03/31 23:15 KLUD 312315Z AUTO 12003KT 10SM BKN043 18/08 A3003 RMK AO2 T01830083
KXBP - Bridgeport, Texas, USA
Distance from Wildwood: VSV 11mi, 18km
Opdateret: Mar 31, 2020 6:15pm
Klart
Klart
 Vind retning calm
Vind: Vindstille
Temperatur: 66°F , 19°C
Dugpunkt: 46°F , 8°C
Fugtighed: 49%
Barometer: 30.05 inHg , 1017.6 hPa
Clouds: Klart
Visibility: 10 miles , 16 km
2020/03/31 23:15 KXBP 312315Z AUTO 00000KT 10SM CLR 19/08 A3005 RMK AO2 T01880075
 
K0F2 - Bowie, Texas, USA
Distance from Wildwood: NNV 24mi, 39km
Opdateret: Mar 31, 2020 6:15pm
Partly Cloudy
Partly Cloudy
 Vind retning N
Vind: N 5 mph , 7 km/h
Temperatur: 68°F , 20°C
Dugpunkt: 48°F , 9°C
Fugtighed: 49%
Barometer: 30.03 inHg , 1016.9 hPa
Clouds: Partly Cloudy
Visibility: 10 miles , 16 km
Cloud details: Partly Cloudy 4400 ft
2020/03/31 23:15 K0F2 312315Z AUTO 35004KT 10SM SCT044 20/09 A3003 RMK AO2 T02000091
KDTO - Denton, Texas, USA
Distance from Wildwood: Ø 27mi, 44km
Opdateret: Mar 31, 2020 5:53pm
Few Clouds
Few Clouds
 Vind retning calm
Vind: Vindstille
Temperatur: 66°F , 19°C
Dugpunkt: 46°F , 8°C
Fugtighed: 49%
Barometer: 30.03 inHg , 1016.9 hPa
Clouds: Few Clouds
Visibility: 10 miles , 16 km
Cloud details: Few Clouds 4400 ft
2020/03/31 22:53 KDTO 312253Z 00000KT 10SM FEW044 19/08 A3003 RMK AO2 SLP166 T01890078
 
KAFW - Ft Worth/Allianc, Texas, USA
Distance from Wildwood: SØ 29mi, 46km
Opdateret: Mar 31, 2020 5:53pm
Partly Cloudy
Partly Cloudy
 Vind retning NNØ
Vind: NNØ 8 mph , 13 km/h
Temperatur: 66°F , 19°C
Dugpunkt: 48°F , 9°C
Fugtighed: 52%
Barometer: 30.02 inHg , 1016.6 hPa
Clouds: Partly Cloudy
Visibility: 10 miles , 16 km
Cloud details: Partly Cloudy 4100 ft
Partly Cloudy 25000 ft
2020/03/31 22:53 KAFW 312253Z 02007KT 10SM SCT041 SCT250 19/09 A3002 RMK AO2 SLP163 T01940089
KFTW - Fort Worth, Texas, USA
Distance from Wildwood: SSØ 34mi, 55km
Opdateret: Mar 31, 2020 5:53pm
Klart
Klart
 Vind retning NNV
Vind: NNV 8 mph , 13 km/h
Temperatur: 64°F , 18°C
Dugpunkt: 48°F , 9°C
Fugtighed: 56%
Barometer: 30.02 inHg , 1016.6 hPa
Clouds: Klart
Visibility: 10 miles , 16 km
2020/03/31 22:53 KFTW 312253Z 33007KT 10SM CLR 18/09 A3002 RMK AO2 SLP161 T01830089
 
KNFW - Fort Worth Nas, Texas, USA
Distance from Wildwood: SSØ 36mi, 58km
Opdateret: Mar 31, 2020 5:52pm
Partly Cloudy
Partly Cloudy
 Vind retning N
Vind: N 8 mph , 13 km/h
Temperatur: 68°F , 20°C
Dugpunkt: 48°F , 9°C
Fugtighed: 49%
Barometer: 30.02 inHg , 1016.6 hPa
Clouds: Partly Cloudy
Visibility: 10 miles , 16 km
Cloud details: Few Clouds 4500 ft
Partly Cloudy 25000 ft
2020/03/31 22:52 KNFW 312252Z 36007KT 10SM FEW045 SCT250 20/09 A3002 RMK AO2 SLP150 T02000089 VISNO N $
KGLE - Gainesville, Texas, USA
Distance from Wildwood: NØ 38mi, 61km
Opdateret: Mar 31, 2020 6:15pm
Partly Cloudy
Partly Cloudy
 Vind retning calm
Vind: Vindstille
Temperatur: 64°F , 18°C
Dugpunkt: 45°F , 7°C
Fugtighed: 49%
Barometer: 30.04 inHg , 1017.3 hPa
Clouds: Partly Cloudy
Visibility: 10 miles , 16 km
Cloud details: Partly Cloudy 4600 ft
2020/03/31 23:15 KGLE 312315Z AUTO 00000KT 10SM SCT046 18/07 A3004 RMK AO2 T01800065 PWINO
 
KMWL - Mineral Wells, Texas, USA
Distance from Wildwood: SV 41mi, 65km
Opdateret: Mar 31, 2020 5:53pm
Klart
Klart
 Vind retning N
Vind: N 6 mph , 9 km/h
Temperatur: 68°F , 20°C
Dugpunkt: 46°F , 8°C
Fugtighed: 46%
Barometer: 30.01 inHg , 1016.3 hPa
Clouds: Klart
Visibility: 10 miles , 16 km
2020/03/31 22:53 KMWL 312253Z AUTO 01005KT 10SM CLR 20/08 A3001 RMK AO2 SLP156 T02000083
KDFW - Dallas/Ft Worth, Texas, USA
Distance from Wildwood: ØSØ 45mi, 73km
Opdateret: Mar 31, 2020 5:53pm
Few Clouds
Few Clouds
 Vind retning NNV
Vind: NNV 6 mph , 9 km/h
Temperatur: 66°F , 19°C
Dugpunkt: 46°F , 8°C
Fugtighed: 49%
Barometer: 30.01 inHg , 1016.3 hPa
Clouds: Few Clouds
Visibility: 10 miles , 16 km
Cloud details: Few Clouds 4400 ft
Few Clouds 30000 ft
2020/03/31 22:53 KDFW 312253Z 34005KT 10SM FEW044 FEW300 19/08 A3001 RMK AO2 SLP159 T01890083